Time;durP1;ratioP1;P1;durP2;ratioP2;P2;SDS_P1;SDS_P2;PMS_P1;PMS_P2;Temp;Humidity;BMP_temperature;BMP_pressure;BME280_temperature;BME280_humidity;BME280_pressure;Samples;Min_cycle;Max_cycle;Signal;HPM_P1;HPM_P2
2023/10/23 00:00:00;;;;;;;1.48;0.65;;;20.00;80.50;;;;;;6235820;22;45066;-62
2023/10/23 00:02:27;;;;;;;1.63;0.50;;;20.00;80.50;;;;;;6306445;22;44987;-62
2023/10/23 00:05:20;;;;;;;2.85;0.70;;;20.00;80.70;;;;;;6308935;22;45123;-62
2023/10/23 00:08:05;;;;;;;1.95;0.60;;;20.00;80.70;;;;;;6308979;22;44928;-62
2023/10/23 00:10:44;;;;;;;1.52;0.60;;;20.10;80.80;;;;;;6309797;22;45042;-62
2023/10/23 00:13:20;;;;;;;2.53;0.50;;;20.10;80.90;;;;;;6309785;22;44978;-62
2023/10/23 00:16:09;;;;;;;2.05;0.60;;;20.10;81.00;;;;;;6310121;22;46324;-62
2023/10/23 00:18:36;;;;;;;1.65;0.60;;;20.00;81.00;;;;;;6310297;22;45012;-62
2023/10/23 00:22:17;;;;;;;2.65;0.70;;;20.10;81.10;;;;;;6310318;22;44958;-62
2023/10/23 00:24:46;;;;;;;2.05;0.60;;;20.10;81.10;;;;;;6310163;22;44907;-62
2023/10/23 00:27:28;;;;;;;1.67;0.65;;;20.10;81.30;;;;;;6309624;22;46200;-62
2023/10/23 00:29:56;;;;;;;1.05;0.60;;;20.10;81.30;;;;;;6310198;22;44948;-62
2023/10/23 00:32:29;;;;;;;1.95;0.60;;;20.00;81.30;;;;;;6309703;22;45110;-62
2023/10/23 00:35:08;;;;;;;1.05;0.50;;;20.00;81.30;;;;;;6309774;22;45205;-62
2023/10/23 00:38:00;;;;;;;1.88;0.60;;;20.00;81.40;;;;;;6309840;22;46190;-62
2023/10/23 00:44:04;;;;;;;0.80;0.60;;;20.00;81.20;;;;;;6029664;22;45273;-61
2023/10/23 00:46:34;;;;;;;2.47;0.60;;;20.00;81.20;;;;;;6035782;22;45346;-61
2023/10/23 00:49:20;;;;;;;2.75;0.40;;;20.00;81.20;;;;;;6013282;22;46156;-61
2023/10/23 00:51:47;;;;;;;1.00;0.50;;;20.00;81.00;;;;;;6022180;22;45216;-62
2023/10/23 00:54:32;;;;;;;0.60;0.40;;;20.00;81.00;;;;;;6068702;22;45166;-62
2023/10/23 00:57:15;;;;;;;1.60;0.70;;;20.00;80.80;;;;;;6092010;22;45535;-62
2023/10/23 00:59:51;;;;;;;2.08;0.55;;;20.00;80.70;;;;;;6118907;22;45745;-63
2023/10/23 01:02:48;;;;;;;0.90;0.50;;;20.00;80.60;;;;;;6179281;22;45073;-63
2023/10/23 01:12:11;;;;;;;1.02;0.55;;;20.00;80.40;;;;;;6205859;22;45839;-63
2023/10/23 01:15:15;;;;;;;1.23;0.55;;;20.00;80.40;;;;;;6230967;22;45230;-63
2023/10/23 01:17:42;;;;;;;0.68;0.40;;;20.00;80.40;;;;;;6274557;22;45073;-62
2023/10/23 01:20:11;;;;;;;0.50;0.43;;;20.00;80.50;;;;;;6310362;22;45070;-62
2023/10/23 01:23:12;;;;;;;0.95;0.43;;;20.00;80.50;;;;;;6311053;22;46334;-62
2023/10/23 01:26:04;;;;;;;0.95;0.32;;;20.00;80.40;;;;;;6311207;22;44993;-62
2023/10/23 01:28:59;;;;;;;0.40;0.35;;;20.00;80.30;;;;;;6310940;22;45073;-62
2023/10/23 01:31:54;;;;;;;1.10;0.30;;;20.00;80.20;;;;;;6311054;22;45096;-62
2023/10/23 01:34:32;;;;;;;1.05;0.50;;;20.00;80.10;;;;;;6310953;22;47244;-62
2023/10/23 01:37:02;;;;;;;1.00;0.30;;;19.90;80.10;;;;;;6311434;22;45210;-63
2023/10/23 01:39:50;;;;;;;1.20;0.55;;;20.00;80.10;;;;;;6310755;22;45081;-62
2023/10/23 01:55:44;;;;;;;1.48;0.50;;;19.90;79.80;;;;;;6280378;22;1241018;-61
2023/10/23 01:58:13;;;;;;;3.47;0.73;;;20.00;79.50;;;;;;6286505;22;45165;-61
2023/10/23 02:00:40;;;;;;;0.77;0.50;;;20.00;79.40;;;;;;6286809;22;45055;-61
2023/10/23 02:03:09;;;;;;;0.77;0.60;;;20.00;79.20;;;;;;6286700;22;44970;-61
2023/10/23 02:05:49;;;;;;;3.75;0.63;;;20.00;79.10;;;;;;6286513;22;45123;-61
2023/10/23 02:11:26;;;;;;;1.65;0.88;;;20.00;78.80;;;;;;6284532;22;45161;-61
2023/10/23 02:14:18;;;;;;;1.75;0.70;;;19.90;78.40;;;;;;6286679;22;45150;-61
2023/10/23 02:16:56;;;;;;;1.00;0.60;;;20.00;78.30;;;;;;6286806;22;46338;-61
2023/10/23 02:19:49;;;;;;;0.80;0.50;;;20.00;78.40;;;;;;6286824;22;45003;-61
2023/10/23 02:22:16;;;;;;;1.45;0.70;;;20.00;78.30;;;;;;6286645;22;45071;-61
2023/10/23 02:24:45;;;;;;;1.92;0.65;;;20.00;78.30;;;;;;6286609;22;44972;-61
2023/10/23 02:27:33;;;;;;;1.40;0.60;;;20.00;78.30;;;;;;6286024;22;47396;-61
2023/10/23 02:30:26;;;;;;;0.95;0.50;;;20.00;78.20;;;;;;6285888;22;44998;-61
2023/10/23 02:33:07;;;;;;;2.42;0.60;;;20.00;78.30;;;;;;6286460;22;45099;-61
2023/10/23 02:35:44;;;;;;;1.83;0.43;;;20.00;78.30;;;;;;6286330;22;45162;-61
2023/10/23 02:38:23;;;;;;;0.65;0.50;;;20.00;78.30;;;;;;6286522;22;45766;-61
2023/10/23 02:41:01;;;;;;;0.95;0.60;;;20.00;78.30;;;;;;6286166;22;45038;-60
2023/10/23 02:43:31;;;;;;;2.03;0.70;;;19.90;78.20;;;;;;6286683;22;45148;-61
2023/10/23 02:46:26;;;;;;;1.00;0.60;;;20.00;78.30;;;;;;6286670;22;45152;-61
2023/10/23 02:49:07;;;;;;;1.27;0.90;;;19.90;78.20;;;;;;6286195;22;46617;-60
2023/10/23 02:51:33;;;;;;;1.15;0.40;;;20.00;78.30;;;;;;6286878;22;45176;-60
2023/10/23 02:54:02;;;;;;;1.40;0.55;;;20.00;78.30;;;;;;6290509;22;45143;-61
2023/10/23 02:57:04;;;;;;;1.70;0.70;;;19.90;78.20;;;;;;6311333;22;44956;-60
2023/10/23 02:59:52;;;;;;;1.60;0.60;;;19.90;78.20;;;;;;6311085;22;47203;-60
2023/10/23 03:05:41;;;;;;;1.55;0.60;;;19.90;78.20;;;;;;6302773;22;45231;-61
2023/10/23 03:08:19;;;;;;;1.27;0.68;;;19.90;77.70;;;;;;6311105;22;44998;-62
2023/10/23 03:11:08;;;;;;;1.13;0.60;;;19.90;77.60;;;;;;6310918;22;45818;-62
2023/10/23 03:13:45;;;;;;;0.63;0.45;;;19.90;77.40;;;;;;6310380;22;44975;-62
2023/10/23 03:16:38;;;;;;;2.10;0.70;;;20.00;77.70;;;;;;6310664;22;44968;-61
2023/10/23 03:19:05;;;;;;;1.50;0.60;;;19.90;77.20;;;;;;6311201;22;45297;-62
2023/10/23 03:21:47;;;;;;;0.85;0.60;;;20.00;77.50;;;;;;6310298;22;46288;-62
2023/10/23 03:24:28;;;;;;;1.67;0.68;;;19.90;77.20;;;;;;6310762;22;45094;-62
2023/10/23 03:27:21;;;;;;;1.88;0.55;;;19.90;77.10;;;;;;6310660;22;45015;-62
2023/10/23 03:29:48;;;;;;;1.52;0.50;;;19.90;77.10;;;;;;6311118;22;45102;-62
2023/10/23 03:32:16;;;;;;;1.58;0.40;;;19.90;77.20;;;;;;6310297;22;47253;-62
2023/10/23 03:34:45;;;;;;;1.15;0.55;;;19.90;77.10;;;;;;6310329;22;45144;-62
2023/10/23 03:37:46;;;;;;;1.88;0.43;;;19.90;77.10;;;;;;6310509;22;44974;-62
2023/10/23 03:40:15;;;;;;;2.67;0.70;;;19.90;77.00;;;;;;6310850;22;45153;-62
2023/10/23 03:43:07;;;;;;;2.13;0.60;;;19.90;77.10;;;;;;6310214;22;45135;-62
2023/10/23 03:45:36;;;;;;;0.80;0.45;;;19.90;77.00;;;;;;6310262;22;44968;-62
2023/10/23 03:48:04;;;;;;;0.88;0.50;;;19.90;77.00;;;;;;6310430;22;44943;-62
2023/10/23 03:50:38;;;;;;;1.00;0.60;;;19.90;77.10;;;;;;6310468;22;45018;-62
2023/10/23 03:53:18;;;;;;;1.45;0.50;;;19.90;77.00;;;;;;6310644;22;45775;-62
2023/10/23 03:55:58;;;;;;;0.75;0.55;;;19.90;76.80;;;;;;6310180;22;44979;-62
2023/10/23 03:58:25;;;;;;;1.95;0.60;;;19.90;76.70;;;;;;6310542;22;45045;-62
2023/10/23 04:00:55;;;;;;;1.67;0.57;;;19.90;76.50;;;;;;6310541;22;45246;-62
2023/10/23 04:03:53;;;;;;;1.67;0.50;;;19.90;76.60;;;;;;6310003;22;46514;-62
2023/10/23 04:06:31;;;;;;;2.08;0.68;;;19.90;76.40;;;;;;6309877;22;45061;-62
2023/10/23 04:09:26;;;;;;;2.25;0.65;;;19.90;76.30;;;;;;6310875;22;45038;-62
2023/10/23 04:11:55;;;;;;;1.25;0.77;;;19.90;76.30;;;;;;6310412;22;45122;-62
2023/10/23 04:14:23;;;;;;;1.73;0.80;;;19.90;76.40;;;;;;6305688;22;46654;-62
2023/10/23 04:20:23;;;;;;;2.42;0.60;;;19.90;76.10;;;;;;6274228;22;45034;-61
2023/10/23 04:22:50;;;;;;;2.10;0.70;;;19.90;76.30;;;;;;6301227;22;45113;-62
2023/10/23 04:25:19;;;;;;;2.08;0.60;;;19.90;76.40;;;;;;6272542;22;45420;-63
2023/10/23 04:27:50;;;;;;;1.80;0.70;;;19.90;76.70;;;;;;6273725;22;45201;-62
2023/10/23 04:30:39;;;;;;;1.02;0.60;;;19.90;76.80;;;;;;6198146;22;45135;-59
2023/10/23 04:33:06;;;;;;;0.85;0.50;;;19.90;77.00;;;;;;6029177;22;45252;-61
2023/10/23 04:35:34;;;;;;;0.75;0.52;;;19.90;77.10;;;;;;6087317;22;46238;-62
2023/10/23 04:38:23;;;;;;;2.08;0.95;;;19.90;77.30;;;;;;6082978;22;45240;-62
2023/10/23 04:41:03;;;;;;;3.88;0.65;;;19.90;77.20;;;;;;6041475;22;45131;-63
2023/10/23 04:43:47;;;;;;;2.25;0.70;;;19.90;78.20;;;;;;6084864;22;45239;-63
2023/10/23 04:46:14;;;;;;;1.10;0.40;;;19.90;78.20;;;;;;6039209;22;47232;-63
2023/10/23 04:49:08;;;;;;;1.80;0.60;;;19.90;78.40;;;;;;6082163;22;45338;-63
2023/10/23 04:51:35;;;;;;;2.25;0.88;;;19.90;78.70;;;;;;6036525;22;45182;-60
2023/10/23 04:54:20;;;;;;;2.00;0.90;;;19.90;78.50;;;;;;6057548;22;45297;-60
2023/10/23 04:56:47;;;;;;;2.35;1.02;;;19.90;78.40;;;;;;6055656;22;47477;-61
2023/10/23 04:59:15;;;;;;;3.85;1.80;;;19.90;78.20;;;;;;6012531;22;45275;-62
2023/10/23 05:01:55;;;;;;;4.20;1.67;;;19.90;78.20;;;;;;6032911;22;45095;-62
2023/10/23 05:04:37;;;;;;;4.70;1.75;;;19.90;73.30;;;;;;6059006;22;45329;-63
2023/10/23 05:07:17;;;;;;;3.22;1.40;;;19.90;69.40;;;;;;6042645;22;47272;-60
2023/10/23 05:10:08;;;;;;;3.60;1.60;;;19.90;69.60;;;;;;6035861;22;45185;-62
2023/10/23 05:12:38;;;;;;;3.97;1.35;;;19.80;66.30;;;;;;6053195;22;45135;-62
2023/10/23 05:15:08;;;;;;;2.83;1.30;;;19.80;65.50;;;;;;6053068;22;45217;-63
2023/10/23 05:17:53;;;;;;;2.67;1.10;;;19.80;65.50;;;;;;6043320;22;46496;-60
2023/10/23 05:20:42;;;;;;;3.72;1.10;;;19.80;64.20;;;;;;6042775;22;45125;-61
2023/10/23 05:23:36;;;;;;;1.63;0.80;;;19.80;63.30;;;;;;6059772;22;45268;-61
2023/10/23 05:26:03;;;;;;;3.05;1.02;;;19.70;65.40;;;;;;6057025;22;45341;-60
2023/10/23 05:28:56;;;;;;;5.40;1.00;;;19.70;67.90;;;;;;6041263;22;45748;-60
2023/10/23 05:32:03;;;;;;;2.45;0.93;;;19.70;69.00;;;;;;6055394;22;45326;-61
2023/10/23 05:34:47;;;;;;;2.28;1.02;;;19.70;71.20;;;;;;6062470;22;45326;-62
2023/10/23 05:37:14;;;;;;;2.13;0.80;;;19.70;71.10;;;;;;6026369;22;45324;-62
2023/10/23 05:40:15;;;;;;;6.90;1.30;;;19.80;71.80;;;;;;6047204;22;47237;-63
2023/10/23 05:42:50;;;;;;;1.95;0.85;;;19.80;72.00;;;;;;6050904;22;45588;-60
2023/10/23 05:45:24;;;;;;;3.83;0.90;;;19.80;72.20;;;;;;6069813;22;45358;-61
2023/10/23 05:48:26;;;;;;;1.40;0.70;;;19.80;72.40;;;;;;6080838;22;45250;-62
2023/10/23 05:51:14;;;;;;;2.33;1.00;;;19.80;72.40;;;;;;6070341;22;47228;-63
2023/10/23 05:54:00;;;;;;;1.55;0.80;;;19.80;72.80;;;;;;6110682;22;45056;-63
2023/10/23 05:56:54;;;;;;;1.63;0.73;;;19.80;72.80;;;;;;6125879;22;45315;-63
2023/10/23 05:59:47;;;;;;;1.55;0.60;;;19.80;72.70;;;;;;6148573;22;45069;-63
2023/10/23 06:02:48;;;;;;;2.70;0.82;;;19.70;72.50;;;;;;6122089;22;45404;-63
2023/10/23 06:05:15;;;;;;;1.35;0.60;;;19.80;72.80;;;;;;6106059;22;45554;-63
2023/10/23 06:07:52;;;;;;;1.98;1.02;;;19.80;72.90;;;;;;6105257;22;45143;-63
2023/10/23 06:10:41;;;;;;;1.30;0.77;;;19.80;72.90;;;;;;6096832;22;45252;-63
2023/10/23 06:13:30;;;;;;;1.48;0.80;;;19.80;72.90;;;;;;6077265;22;47435;-63
2023/10/23 06:16:09;;;;;;;1.67;0.70;;;19.80;73.00;;;;;;6064928;22;45401;-63
2023/10/23 06:18:38;;;;;;;1.92;1.00;;;19.80;73.00;;;;;;6082137;22;45254;-61
2023/10/23 06:21:12;;;;;;;1.45;0.90;;;19.80;73.00;;;;;;6050435;22;45246;-60
2023/10/23 06:24:10;;;;;;;1.23;0.55;;;19.80;72.90;;;;;;6035323;22;45359;-61
2023/10/23 06:27:06;;;;;;;1.23;0.63;;;19.80;72.80;;;;;;6064960;22;45264;-62
2023/10/23 06:29:54;;;;;;;0.85;0.52;;;19.80;72.70;;;;;;6042802;22;45172;-62
2023/10/23 06:32:40;;;;;;;1.20;0.60;;;19.80;72.70;;;;;;6049314;22;45118;-63
2023/10/23 06:37:48;;;;;;;0.75;0.50;;;19.80;72.80;;;;;;6024214;22;45239;-63
2023/10/23 06:40:17;;;;;;;1.13;0.60;;;19.80;72.80;;;;;;6044035;22;45086;-63
2023/10/23 06:42:44;;;;;;;1.30;0.70;;;19.80;72.80;;;;;;6067304;22;45467;-64
2023/10/23 06:45:37;;;;;;;1.52;0.70;;;19.80;72.80;;;;;;6048244;22;46858;-62
2023/10/23 06:48:05;;;;;;;1.00;0.50;;;19.80;72.80;;;;;;6050506;22;45449;-63
2023/10/23 06:53:54;;;;;;;1.15;0.63;;;19.80;72.90;;;;;;6008754;22;45328;-60
2023/10/23 06:56:23;;;;;;;1.08;0.60;;;19.70;72.80;;;;;;6037958;22;47062;-61
2023/10/23 06:58:50;;;;;;;1.88;0.60;;;19.80;73.00;;;;;;6051354;22;45036;-62
2023/10/23 07:01:35;;;;;;;1.20;0.68;;;19.80;73.20;;;;;;6065034;22;45150;-62
2023/10/23 07:04:03;;;;;;;1.35;0.90;;;19.80;73.10;;;;;;6021768;22;45225;-62
2023/10/23 07:07:06;;;;;;;1.30;0.70;;;19.80;73.10;;;;;;6058097;22;45562;-62
2023/10/23 07:09:34;;;;;;;2.03;0.55;;;19.70;73.00;;;;;;6038272;22;45308;-62
2023/10/23 07:12:42;;;;;;;0.85;0.57;;;19.80;73.10;;;;;;6016539;22;45244;-62
2023/10/23 07:15:10;;;;;;;18.40;1.45;;;19.70;72.90;;;;;;6041072;22;45253;-64
2023/10/23 07:17:37;;;;;;;6.85;1.38;;;19.80;73.80;;;;;;6123824;22;46318;-64
2023/10/23 07:20:30;;;;;;;5.35;1.13;;;19.80;73.70;;;;;;6134220;22;45054;-63
2023/10/23 07:23:31;;;;;;;4.20;0.93;;;19.80;73.30;;;;;;6166884;22;45005;-63
2023/10/23 07:26:07;;;;;;;4.07;1.02;;;19.80;73.30;;;;;;6181627;22;45288;-64
2023/10/23 07:29:37;;;;;;;2.78;1.20;;;19.80;73.30;;;;;;6191930;22;46256;-64
2023/10/23 07:32:26;;;;;;;4.85;1.02;;;19.80;73.20;;;;;;6204809;22;45131;-63
2023/10/23 07:34:54;;;;;;;1.77;0.90;;;19.80;73.20;;;;;;6131218;22;45044;-64
2023/10/23 07:37:22;;;;;;;3.67;0.90;;;19.80;73.30;;;;;;6092760;22;45386;-64
2023/10/23 07:40:18;;;;;;;2.45;1.00;;;19.80;73.60;;;;;;6060797;22;48410;-65
2023/10/23 07:43:12;;;;;;;1.60;0.80;;;19.80;73.60;;;;;;6056006;22;45244;-65
2023/10/23 07:45:39;;;;;;;6.55;0.80;;;19.80;73.90;;;;;;6035444;22;45489;-66
2023/10/23 07:48:10;;;;;;;1.75;0.93;;;19.80;74.00;;;;;;6061932;22;45456;-65
2023/10/23 07:50:38;;;;;;;3.15;0.88;;;19.80;74.00;;;;;;6034930;22;46314;-65
2023/10/23 07:56:17;;;;;;;1.70;0.93;;;19.80;74.60;;;;;;6062913;22;45671;-65
2023/10/23 07:59:23;;;;;;;3.00;0.80;;;19.80;74.10;;;;;;6063512;22;45335;-66
2023/10/23 08:02:15;;;;;;;2.50;1.20;;;19.80;74.70;;;;;;6029227;22;48567;-65
2023/10/23 08:04:44;;;;;;;1.02;0.70;;;19.80;74.70;;;;;;6057213;22;45079;-65
2023/10/23 08:07:13;;;;;;;1.90;1.00;;;19.80;75.10;;;;;;6035363;22;45300;-65
2023/10/23 08:10:05;;;;;;;2.60;0.90;;;19.80;75.20;;;;;;6023441;22;45261;-65
2023/10/23 08:12:41;;;;;;;0.82;0.65;;;19.90;75.20;;;;;;6067662;22;46590;-65
2023/10/23 08:15:46;;;;;;;1.33;0.60;;;19.80;75.30;;;;;;6068572;22;45280;-65
2023/10/23 08:18:52;;;;;;;1.70;0.52;;;19.80;75.30;;;;;;6055857;22;45322;-64
2023/10/23 08:21:22;;;;;;;0.88;0.50;;;19.90;75.30;;;;;;6028939;22;45107;-65
2023/10/23 08:24:03;;;;;;;0.77;0.43;;;19.90;75.40;;;;;;6033037;22;47274;-65
2023/10/23 08:29:36;;;;;;;3.00;0.70;;;19.90;75.60;;;;;;6037557;22;45148;-66
2023/10/23 08:32:15;;;;;;;1.23;0.70;;;19.90;75.60;;;;;;6082601;22;45122;-66
2023/10/23 08:38:27;;;;;;;1.95;0.75;;;19.90;75.70;;;;;;6051505;22;45254;-66
2023/10/23 08:41:22;;;;;;;1.30;0.70;;;19.90;75.90;;;;;;6060495;22;45142;-66
2023/10/23 08:43:56;;;;;;;0.93;0.60;;;19.90;75.80;;;;;;6034810;22;45322;-67
2023/10/23 08:46:31;;;;;;;2.70;0.90;;;19.90;75.90;;;;;;6068546;22;45330;-66
2023/10/23 08:49:00;;;;;;;4.68;0.90;;;19.90;75.80;;;;;;6043766;22;45823;-66
2023/10/23 08:51:27;;;;;;;0.80;0.60;;;19.80;76.10;;;;;;6043146;22;44995;-66
2023/10/23 08:54:12;;;;;;;0.98;0.60;;;19.80;76.20;;;;;;6020628;22;45361;-65
2023/10/23 09:02:48;;;;;;;0.93;0.50;;;19.80;76.40;;;;;;6003889;22;45218;-66
2023/10/23 09:05:29;;;;;;;2.40;0.82;;;19.80;77.20;;;;;;6016963;22;45437;-66
2023/10/23 09:08:34;;;;;;;1.20;0.60;;;19.80;77.50;;;;;;6051111;22;45573;-65
2023/10/23 09:11:22;;;;;;;1.45;0.60;;;19.80;77.50;;;;;;6037615;22;45350;-66
2023/10/23 09:13:49;;;;;;;1.27;0.70;;;19.80;77.40;;;;;;6066343;22;45337;-66
2023/10/23 09:16:16;;;;;;;1.05;0.55;;;19.80;77.50;;;;;;6033221;22;45342;-66
2023/10/23 09:18:49;;;;;;;0.95;0.50;;;19.80;77.70;;;;;;6082029;22;45450;-66
2023/10/23 09:21:49;;;;;;;1.65;0.52;;;19.80;77.60;;;;;;6059812;22;45287;-66
2023/10/23 09:24:16;;;;;;;1.92;0.57;;;19.80;77.70;;;;;;6031970;22;45190;-66
2023/10/23 09:27:05;;;;;;;2.10;0.65;;;19.80;77.70;;;;;;6051698;22;45325;-65
2023/10/23 09:29:34;;;;;;;1.60;0.90;;;19.80;78.10;;;;;;6026721;22;46341;-66
2023/10/23 09:32:31;;;;;;;1.73;0.70;;;19.90;77.50;;;;;;6041076;22;45465;-65
2023/10/23 09:35:18;;;;;;;1.48;0.70;;;19.90;77.60;;;;;;6036426;22;45166;-65
2023/10/23 09:38:12;;;;;;;1.00;0.60;;;19.90;77.70;;;;;;6010107;22;45290;-65
2023/10/23 09:40:44;;;;;;;1.85;0.52;;;19.90;78.00;;;;;;6026923;22;46214;-65
2023/10/23 09:44:09;;;;;;;1.40;0.73;;;19.80;77.80;;;;;;6026545;22;45098;-65
2023/10/23 09:46:38;;;;;;;1.42;0.70;;;19.90;77.50;;;;;;6041617;22;45209;-66
2023/10/23 09:49:06;;;;;;;1.00;0.70;;;19.90;78.80;;;;;;6056918;22;45362;-65
2023/10/23 09:52:12;;;;;;;1.48;0.80;;;19.90;78.20;;;;;;6022759;22;47147;-65
2023/10/23 09:55:29;;;;;;;1.23;0.70;;;19.90;78.20;;;;;;6034939;22;45292;-65
2023/10/23 09:58:23;;;;;;;0.65;0.60;;;19.90;78.20;;;;;;6028554;22;45378;-65
2023/10/23 10:01:00;;;;;;;1.65;0.88;;;19.80;77.50;;;;;;6010277;22;45267;-65
2023/10/23 10:03:50;;;;;;;1.52;0.88;;;19.80;77.80;;;;;;6030768;22;45838;-64
2023/10/23 10:06:52;;;;;;;1.73;0.80;;;19.80;75.60;;;;;;6048585;22;45265;-65
2023/10/23 10:09:38;;;;;;;2.22;1.20;;;19.80;74.90;;;;;;6045058;22;45273;-65
2023/10/23 10:12:19;;;;;;;2.25;0.95;;;19.80;74.20;;;;;;6040128;22;45124;-65
2023/10/23 10:15:18;;;;;;;1.70;1.08;;;19.80;74.20;;;;;;6055168;22;45474;-64
2023/10/23 10:18:06;;;;;;;9.63;1.80;;;19.80;76.10;;;;;;6046780;22;45167;-59
2023/10/23 10:20:45;;;;;;;2.80;0.90;;;19.80;77.30;;;;;;6039898;22;45518;-60
2023/10/23 10:23:27;;;;;;;5.75;1.20;;;19.80;78.10;;;;;;6022728;22;45118;-60
2023/10/23 10:26:15;;;;;;;2.30;1.10;;;19.80;78.10;;;;;;6058988;22;47156;-60
2023/10/23 10:28:56;;;;;;;2.67;1.02;;;19.80;78.10;;;;;;6013793;22;45382;-61
2023/10/23 10:32:01;;;;;;;3.25;1.10;;;19.80;78.10;;;;;;6041627;22;45231;-61
2023/10/23 10:34:28;;;;;;;1.00;0.70;;;19.90;78.90;;;;;;6036822;22;45510;-61
2023/10/23 10:37:35;;;;;;;1.52;0.90;;;19.90;79.10;;;;;;6045730;22;47579;-59
2023/10/23 10:40:26;;;;;;;2.13;0.85;;;19.80;79.50;;;;;;6029068;22;45283;-59
2023/10/23 10:43:32;;;;;;;1.52;0.77;;;19.80;79.90;;;;;;6038343;22;45282;-59
2023/10/23 10:46:10;;;;;;;1.75;0.82;;;19.90;80.30;;;;;;6034692;22;45233;-59
2023/10/23 10:48:57;;;;;;;2.90;0.90;;;19.90;80.50;;;;;;6026479;22;46636;-60
2023/10/23 10:51:57;;;;;;;1.80;1.20;;;19.80;80.80;;;;;;6056483;22;45300;-61
2023/10/23 10:55:00;;;;;;;1.85;0.80;;;19.90;81.20;;;;;;6027726;22;45123;-61
2023/10/23 10:57:28;;;;;;;0.70;0.70;;;19.90;81.40;;;;;;6007421;22;45245;-62
2023/10/23 11:00:05;;;;;;;1.33;0.77;;;19.90;81.40;;;;;;6055552;22;47193;-62
2023/10/23 11:02:50;;;;;;;1.48;0.73;;;19.90;81.40;;;;;;6068684;22;45633;-59
2023/10/23 11:05:17;;;;;;;1.83;0.80;;;19.90;81.60;;;;;;6045371;22;45124;-59
2023/10/23 11:07:47;;;;;;;1.55;0.75;;;19.80;81.80;;;;;;6055623;22;45212;-60
2023/10/23 11:10:52;;;;;;;1.23;0.75;;;19.90;82.10;;;;;;6058182;22;45746;-60
2023/10/23 11:13:20;;;;;;;1.10;0.73;;;19.90;82.10;;;;;;6055884;22;45148;-61
2023/10/23 11:16:11;;;;;;;1.92;0.80;;;19.80;81.80;;;;;;6042106;22;45328;-61
2023/10/23 11:19:02;;;;;;;0.60;0.60;;;19.80;82.20;;;;;;6044378;22;45142;-62
2023/10/23 11:25:27;;;;;;;0.95;0.50;;;19.90;82.50;;;;;;6069126;22;45513;-59
2023/10/23 11:27:56;;;;;;;1.42;0.50;;;19.90;82.30;;;;;;6082057;22;44841;-60
2023/10/23 11:30:55;;;;;;;0.60;0.43;;;20.00;82.30;;;;;;6051863;22;45011;-60
2023/10/23 11:33:32;;;;;;;1.42;0.70;;;19.90;82.60;;;;;;6066146;22;46849;-61
2023/10/23 11:36:54;;;;;;;0.70;0.52;;;20.00;82.80;;;;;;6122995;22;45483;-61
2023/10/23 11:39:52;;;;;;;1.65;0.60;;;20.00;82.80;;;;;;6070614;22;45104;-59
2023/10/23 11:42:49;;;;;;;2.25;0.40;;;20.00;82.90;;;;;;6066286;22;45240;-61
2023/10/23 11:45:43;;;;;;;1.27;0.50;;;20.00;83.10;;;;;;6066752;22;46394;-62
2023/10/23 11:48:24;;;;;;;0.82;0.60;;;20.00;83.20;;;;;;6060545;22;45237;-60
2023/10/23 11:51:16;;;;;;;1.00;0.40;;;20.00;83.10;;;;;;6073822;22;45308;-61
2023/10/23 11:54:04;;;;;;;0.40;0.40;;;20.00;83.40;;;;;;6054042;22;45352;-61
2023/10/23 11:56:56;;;;;;;0.90;0.60;;;20.00;83.80;;;;;;6065443;22;46109;-60
2023/10/23 12:00:27;;;;;;;0.57;0.40;;;20.00;84.00;;;;;;6059775;22;45194;-62
2023/10/23 12:03:17;;;;;;;0.45;0.38;;;20.00;84.20;;;;;;6032648;22;45183;-61
2023/10/23 12:05:58;;;;;;;0.43;0.40;;;20.00;84.30;;;;;;6040544;22;45225;-61
2023/10/23 12:08:50;;;;;;;1.52;0.50;;;20.00;84.40;;;;;;6041653;22;46214;-61
2023/10/23 12:11:32;;;;;;;0.40;0.40;;;20.00;84.70;;;;;;6047439;22;45114;-62
2023/10/23 12:14:17;;;;;;;0.55;0.50;;;20.00;84.70;;;;;;6021285;22;45308;-62
2023/10/23 12:17:07;;;;;;;2.45;0.60;;;19.90;84.90;;;;;;6030031;22;45113;-60
2023/10/23 12:20:11;;;;;;;0.80;0.40;;;20.00;85.30;;;;;;6014776;22;46192;-61
2023/10/23 12:22:53;;;;;;;0.45;0.40;;;20.00;85.70;;;;;;6044987;22;45424;-60
2023/10/23 12:25:20;;;;;;;1.27;0.63;;;19.90;86.70;;;;;;6048766;22;45253;-63
2023/10/23 12:28:13;;;;;;;1.38;0.55;;;20.00;87.40;;;;;;6044851;22;45417;-61
2023/10/23 12:31:04;;;;;;;0.60;0.50;;;20.00;88.20;;;;;;6111129;22;46730;-60
2023/10/23 12:33:49;;;;;;;1.75;0.60;;;19.90;89.40;;;;;;6043106;22;45230;-65
2023/10/23 12:39:26;;;;;;;1.80;0.73;;;20.00;89.80;;;;;;6055242;22;45183;-63
2023/10/23 12:42:28;;;;;;;1.35;0.50;;;20.00;91.10;;;;;;6034532;22;46493;-65
2023/10/23 12:45:13;;;;;;;1.45;0.60;;;20.00;90.60;;;;;;6047892;22;45255;-65
2023/10/23 12:47:40;;;;;;;3.10;0.60;;;20.00;90.70;;;;;;6067734;22;44987;-62
2023/10/23 12:50:07;;;;;;;1.20;0.52;;;20.00;90.50;;;;;;6039766;22;45383;-63
2023/10/23 12:53:04;;;;;;;2.70;0.60;;;20.00;90.70;;;;;;6013395;22;46274;-62
2023/10/23 12:55:31;;;;;;;0.98;0.55;;;20.00;91.50;;;;;;6033213;22;45219;-65
2023/10/23 12:57:58;;;;;;;1.30;0.60;;;20.00;91.40;;;;;;6033720;22;45241;-66
2023/10/23 13:00:46;;;;;;;2.13;0.70;;;20.00;91.50;;;;;;6042225;22;45018;-66
2023/10/23 13:03:52;;;;;;;2.05;0.68;;;20.00;91.70;;;;;;6054625;22;46238;-62
2023/10/23 13:06:20;;;;;;;0.95;0.70;;;19.90;91.60;;;;;;6050360;22;45273;-61
2023/10/23 13:09:23;;;;;;;0.93;0.70;;;20.00;91.60;;;;;;6042889;22;45291;-66
2023/10/23 13:12:09;;;;;;;0.80;0.40;;;20.00;91.80;;;;;;6093480;22;45283;-66
2023/10/23 13:15:03;;;;;;;1.85;0.90;;;20.00;92.10;;;;;;6037610;22;46278;-61
2023/10/23 13:17:29;;;;;;;2.95;1.00;;;19.90;92.40;;;;;;6023010;22;45421;-63
2023/10/23 13:19:57;;;;;;;1.17;0.65;;;20.00;92.30;;;;;;6119869;22;45256;-64
2023/10/23 13:22:34;;;;;;;1.25;0.60;;;20.00;92.20;;;;;;6053201;22;45190;-65
2023/10/23 13:25:10;;;;;;;2.17;0.70;;;20.00;92.40;;;;;;6050278;22;46485;-66
2023/10/23 13:27:44;;;;;;;0.60;0.55;;;19.90;92.40;;;;;;6014143;22;45382;-66
2023/10/23 13:33:18;;;;;;;2.88;1.00;;;19.90;92.10;;;;;;6050339;22;45340;-67
2023/10/23 13:35:59;;;;;;;1.63;0.40;;;20.00;92.30;;;;;;6058552;22;45774;-65
2023/10/23 13:38:46;;;;;;;0.93;0.60;;;19.90;92.20;;;;;;6078159;22;45259;-62
2023/10/23 13:44:23;;;;;;;1.65;0.77;;;19.90;92.00;;;;;;6042822;22;45078;-64
2023/10/23 13:47:20;;;;;;;1.55;0.65;;;19.90;92.20;;;;;;6049217;22;46124;-64
2023/10/23 13:50:09;;;;;;;2.05;0.60;;;19.90;92.10;;;;;;6064155;22;45134;-65
2023/10/23 13:53:00;;;;;;;1.70;0.70;;;19.90;91.90;;;;;;6036441;22;45320;-66
2023/10/23 13:55:40;;;;;;;0.75;0.50;;;19.90;90.90;;;;;;6040981;22;45273;-67
2023/10/23 13:58:37;;;;;;;2.33;0.75;;;19.90;90.20;;;;;;6037367;22;47328;-67
2023/10/23 14:01:05;;;;;;;0.90;0.45;;;19.90;89.20;;;;;;6028908;22;44740;-67
2023/10/23 14:03:43;;;;;;;0.98;0.57;;;19.80;90.00;;;;;;6066383;22;45185;-66
2023/10/23 14:06:36;;;;;;;1.42;0.60;;;19.80;88.00;;;;;;6065846;22;45267;-67
2023/10/23 14:09:31;;;;;;;0.80;0.50;;;19.80;87.10;;;;;;6071677;22;45228;-65
2023/10/23 14:12:36;;;;;;;1.33;0.40;;;19.80;86.40;;;;;;6073951;22;45038;-63
2023/10/23 14:15:23;;;;;;;2.97;0.73;;;19.70;86.00;;;;;;6024197;22;45264;-62
2023/10/23 14:18:03;;;;;;;2.17;0.70;;;19.80;87.20;;;;;;6049089;22;44985;-63
2023/10/23 14:20:59;;;;;;;1.52;0.50;;;19.80;88.90;;;;;;6047131;22;46241;-63
2023/10/23 14:23:26;;;;;;;1.20;0.60;;;19.80;89.70;;;;;;6053425;22;45178;-63
2023/10/23 14:26:30;;;;;;;1.63;0.70;;;19.80;89.90;;;;;;6049446;22;45181;-63
2023/10/23 14:29:19;;;;;;;1.48;0.47;;;19.80;90.10;;;;;;6064578;22;44961;-63
2023/10/23 14:32:26;;;;;;;0.70;0.40;;;19.80;90.30;;;;;;6036535;22;46062;-64
2023/10/23 14:35:11;;;;;;;1.25;0.50;;;19.80;90.30;;;;;;6034480;22;45321;-64
2023/10/23 14:38:11;;;;;;;0.85;0.40;;;19.80;90.40;;;;;;6019570;22;45376;-64
2023/10/23 14:40:54;;;;;;;0.57;0.40;;;19.80;90.40;;;;;;6035378;22;45176;-65
2023/10/23 14:43:35;;;;;;;1.17;0.35;;;19.80;90.40;;;;;;6059273;22;46339;-63
2023/10/23 14:46:01;;;;;;;0.55;0.40;;;19.80;90.40;;;;;;6030979;22;45043;-63
2023/10/23 14:48:30;;;;;;;0.93;0.40;;;19.80;90.90;;;;;;6040220;22;45094;-63
2023/10/23 14:51:08;;;;;;;0.90;0.40;;;19.80;90.40;;;;;;6033000;22;45236;-64
2023/10/23 14:56:22;;;;;;;0.63;0.40;;;19.80;90.50;;;;;;6043488;22;45214;-63
2023/10/23 14:58:51;;;;;;;0.50;0.50;;;19.80;90.50;;;;;;6028365;22;45338;-62
2023/10/23 15:01:20;;;;;;;0.82;0.30;;;19.90;90.60;;;;;;6021190;22;44910;-64
2023/10/23 15:03:50;;;;;;;0.60;0.38;;;19.80;90.50;;;;;;6044755;22;46371;-61
2023/10/23 15:06:25;;;;;;;1.15;0.50;;;19.90;91.00;;;;;;5996461;22;45304;-62
2023/10/23 15:08:52;;;;;;;1.40;0.35;;;19.90;90.50;;;;;;6019946;22;45367;-63
2023/10/23 15:11:21;;;;;;;0.90;0.60;;;19.90;90.50;;;;;;6006909;22;45345;-64
2023/10/23 15:14:01;;;;;;;0.50;0.40;;;19.90;90.60;;;;;;6016432;22;46251;-64